createdAt,value
2023-03-05T00:01:33.159Z,3.56
2023-03-05T00:04:00.300Z,3.55
2023-03-05T00:06:30.815Z,3.52
2023-03-05T00:08:58.483Z,3.54
2023-03-05T00:11:30.102Z,3.54
2023-03-05T00:14:00.476Z,3.54
2023-03-05T00:16:28.773Z,3.53
2023-03-05T00:18:57.318Z,3.50
2023-03-05T00:21:28.628Z,3.52
2023-03-05T00:23:58.604Z,3.52
2023-03-05T00:26:27.152Z,3.53
2023-03-05T00:28:55.446Z,3.57
2023-03-05T00:31:25.432Z,3.57
2023-03-05T00:33:56.699Z,3.53
2023-03-05T00:36:27.151Z,3.56
2023-03-05T00:38:58.941Z,3.55
2023-03-05T00:41:26.038Z,3.58
2023-03-05T00:43:52.536Z,3.52
2023-03-05T00:46:27.756Z,3.48
2023-03-05T00:48:58.278Z,3.52
2023-03-05T00:51:27.197Z,3.50
2023-03-05T00:53:56.165Z,3.49
2023-03-05T00:56:23.110Z,3.50
2023-03-05T00:58:49.621Z,3.44
2023-03-05T01:01:19.297Z,3.44
2023-03-05T01:03:48.491Z,3.41
2023-03-05T01:06:20.438Z,3.44
2023-03-05T01:08:47.035Z,3.42
2023-03-05T01:11:16.177Z,3.36
2023-03-05T01:13:44.668Z,3.35
2023-03-05T01:16:13.734Z,3.32
2023-03-05T01:18:43.417Z,3.31
2023-03-05T01:21:10.522Z,3.29
2023-03-05T01:23:37.457Z,3.25
2023-03-05T01:26:06.232Z,3.23
2023-03-05T01:28:33.198Z,3.23
2023-03-05T01:31:05.435Z,3.22
2023-03-05T01:33:31.977Z,3.21
2023-03-05T01:36:00.886Z,3.19
2023-03-05T01:38:27.353Z,3.24
2023-03-05T01:40:57.891Z,3.20
2023-03-05T01:43:28.053Z,3.19
2023-03-05T01:46:31.973Z,3.14
2023-03-05T01:49:25.516Z,3.12
2023-03-05T01:52:03.033Z,3.10
2023-03-05T01:54:35.168Z,3.10
2023-03-05T01:57:13.492Z,3.05
2023-03-05T01:59:42.879Z,3.02
2023-03-05T02:02:09.544Z,3.04
2023-03-05T02:04:54.401Z,3.04
2023-03-05T02:07:21.526Z,3.06
2023-03-05T02:09:47.948Z,3.01
2023-03-05T02:12:23.687Z,3.01
2023-03-05T02:15:00.318Z,3.01
2023-03-05T02:17:41.796Z,2.98
2023-03-05T02:20:16.401Z,2.98
2023-03-05T02:22:42.935Z,2.95
2023-03-05T02:25:29.382Z,2.96
2023-03-05T02:28:01.763Z,2.95
2023-03-05T02:30:28.691Z,2.90
2023-03-05T02:33:02.167Z,2.90
2023-03-05T02:35:29.101Z,2.90
2023-03-05T02:37:57.389Z,2.89
2023-03-05T02:40:24.207Z,2.87
2023-03-05T02:42:58.345Z,2.88
2023-03-05T02:45:24.790Z,2.84
2023-03-05T02:47:53.137Z,2.84
2023-03-05T02:50:28.821Z,2.82
2023-03-05T02:52:58.632Z,2.83
2023-03-05T02:55:30.709Z,2.81
2023-03-05T02:57:58.475Z,2.84
2023-03-05T03:00:32.768Z,2.80
2023-03-05T03:03:01.945Z,2.78
2023-03-05T03:05:28.808Z,2.82
2023-03-05T03:07:55.273Z,2.86
2023-03-05T03:10:21.700Z,2.82
2023-03-05T03:12:48.178Z,2.87
2023-03-05T03:15:19.025Z,2.86
2023-03-05T03:17:45.802Z,2.83
2023-03-05T03:20:19.284Z,2.83
2023-03-05T03:22:48.757Z,2.80
2023-03-05T03:25:21.862Z,2.80
2023-03-05T03:27:48.634Z,2.80
2023-03-05T03:30:17.951Z,2.82
2023-03-05T03:32:45.360Z,2.83
2023-03-05T03:35:15.720Z,2.87
2023-03-05T03:37:42.198Z,2.82
2023-03-05T03:40:09.841Z,2.83
2023-03-05T03:43:01.688Z,2.84
2023-03-05T03:45:26.421Z,2.90
2023-03-05T03:47:53.214Z,2.92
2023-03-05T03:50:25.109Z,2.86
2023-03-05T03:52:52.695Z,2.84
2023-03-05T03:55:19.164Z,2.85
2023-03-05T03:57:46.122Z,2.82
2023-03-05T04:00:17.677Z,2.83
2023-03-05T04:02:46.674Z,2.83
2023-03-05T04:05:13.785Z,2.79
2023-03-05T04:08:02.921Z,2.81
2023-03-05T04:10:32.548Z,2.80
2023-03-05T04:13:00.345Z,2.81
2023-03-05T04:15:27.099Z,2.80
2023-03-05T04:17:53.690Z,2.80
2023-03-05T04:20:20.214Z,2.77
2023-03-05T04:22:56.613Z,2.77
2023-03-05T04:25:23.234Z,2.78
2023-03-05T04:27:49.743Z,2.77
2023-03-05T04:30:16.749Z,2.78
2023-03-05T04:32:45.364Z,2.83
2023-03-05T04:35:18.149Z,2.82
2023-03-05T04:37:44.656Z,2.86
2023-03-05T04:40:14.173Z,2.85
2023-03-05T04:42:43.086Z,2.85
2023-03-05T04:45:12.810Z,2.86
2023-03-05T04:47:39.528Z,2.86
2023-03-05T04:50:07.617Z,2.94
2023-03-05T04:52:52.152Z,2.87
2023-03-05T04:55:23.009Z,2.86
2023-03-05T04:57:58.740Z,2.83
2023-03-05T05:00:43.466Z,2.83
2023-03-05T05:03:10.699Z,2.82
2023-03-05T05:05:49.249Z,2.81
2023-03-05T05:08:15.628Z,2.79
2023-03-05T05:13:26.344Z,2.78
2023-03-05T05:16:02.100Z,2.73
2023-03-05T05:18:49.486Z,2.72
2023-03-05T05:21:16.131Z,2.72
2023-03-05T05:23:56.530Z,2.73
2023-03-05T05:26:25.214Z,2.72
2023-03-05T05:29:05.113Z,2.73
2023-03-05T05:31:31.760Z,2.71
2023-03-05T05:34:13.048Z,2.66
2023-03-05T05:36:42.407Z,2.69
2023-03-05T05:39:12.568Z,2.68
2023-03-05T05:41:41.662Z,2.68
2023-03-05T05:44:17.737Z,2.67
2023-03-05T05:47:06.391Z,2.69
2023-03-05T05:49:38.193Z,2.65
2023-03-05T05:52:16.190Z,2.68
2023-03-05T05:54:42.764Z,2.70
2023-03-05T05:57:40.995Z,2.66
2023-03-05T06:00:35.308Z,2.73
2023-03-05T06:03:12.498Z,2.75
2023-03-05T06:05:46.428Z,2.74
2023-03-05T06:08:21.471Z,2.80
2023-03-05T06:10:59.297Z,2.79
2023-03-05T06:13:32.312Z,2.78
2023-03-05T06:16:10.349Z,2.84
2023-03-05T06:18:40.104Z,2.84
2023-03-05T06:21:25.991Z,2.83
2023-03-05T06:23:52.530Z,2.83
2023-03-05T06:26:41.596Z,2.82
2023-03-05T06:29:39.236Z,2.83
2023-03-05T06:32:11.233Z,2.83
2023-03-05T06:34:39.989Z,2.82
2023-03-05T06:37:07.560Z,2.82
2023-03-05T06:39:41.002Z,2.82
2023-03-05T06:42:13.350Z,2.85
2023-03-05T06:44:42.638Z,2.89
2023-03-05T06:47:14.802Z,2.86
2023-03-05T06:49:48.908Z,2.89
2023-03-05T06:52:29.772Z,2.88
2023-03-05T06:55:22.611Z,2.89
2023-03-05T06:57:54.729Z,2.93
2023-03-05T07:00:21.864Z,2.97
2023-03-05T07:03:03.456Z,3.01
2023-03-05T07:08:12.649Z,3.09
2023-03-05T07:10:48.074Z,3.11
2023-03-05T07:13:14.815Z,3.15
2023-03-05T07:15:48.303Z,3.17
2023-03-05T07:18:32.433Z,3.21
2023-03-05T07:21:10.446Z,3.25
2023-03-05T07:26:24.821Z,3.33
2023-03-05T07:28:58.137Z,3.41
2023-03-05T07:31:55.499Z,3.49
2023-03-05T07:34:38.940Z,3.51
2023-03-05T07:37:07.973Z,3.61
2023-03-05T07:39:34.554Z,3.67
2023-03-05T07:42:09.968Z,3.75
2023-03-05T07:44:51.889Z,3.80
2023-03-05T07:47:19.892Z,3.86
2023-03-05T07:52:48.625Z,4.05
2023-03-05T07:55:20.476Z,4.10
2023-03-05T07:57:55.477Z,4.22
2023-03-05T08:00:29.987Z,4.31
2023-03-05T08:02:58.797Z,4.39
2023-03-05T08:05:25.273Z,4.42
2023-03-05T08:08:18.696Z,4.44
2023-03-05T08:10:57.325Z,4.62
2023-03-05T08:13:24.104Z,4.74
2023-03-05T08:15:50.842Z,4.72
2023-03-05T08:18:19.643Z,4.76
2023-03-05T08:20:52.286Z,4.92
2023-03-05T08:23:28.493Z,5.00
2023-03-05T08:26:40.290Z,5.16
2023-03-05T08:29:09.178Z,5.22
2023-03-05T08:32:06.208Z,4.99
2023-03-05T08:35:04.082Z,5.26
2023-03-05T08:37:55.538Z,5.32
2023-03-05T08:40:32.893Z,5.42
2023-03-05T08:43:07.847Z,5.51
2023-03-05T08:45:49.645Z,5.58
2023-03-05T08:48:16.528Z,5.69
2023-03-05T08:51:05.330Z,5.82
2023-03-05T08:53:31.828Z,5.96
2023-03-05T08:56:01.377Z,6.08
2023-03-05T08:58:44.752Z,5.97
2023-03-05T09:01:18.068Z,6.08
2023-03-05T09:04:08.085Z,6.12
2023-03-05T09:07:03.944Z,6.06
2023-03-05T09:09:42.209Z,6.16
2023-03-05T09:12:20.876Z,6.28
2023-03-05T09:15:00.310Z,6.40
2023-03-05T09:17:48.440Z,6.41
2023-03-05T09:20:15.991Z,6.36
2023-03-05T09:22:52.062Z,6.29
2023-03-05T09:25:21.924Z,6.24
2023-03-05T09:30:47.435Z,6.20
2023-03-05T09:33:14.027Z,6.33
2023-03-05T09:35:41.129Z,6.35
2023-03-05T09:38:07.653Z,6.16
2023-03-05T09:40:58.798Z,6.03
2023-03-05T09:43:37.264Z,5.97
2023-03-05T09:46:09.677Z,6.05
2023-03-05T09:48:57.400Z,6.14
2023-03-05T09:51:34.777Z,6.08
2023-03-05T09:54:06.563Z,6.09
2023-03-05T09:56:37.841Z,6.07
2023-03-05T09:59:27.976Z,6.10
2023-03-05T10:02:01.291Z,5.97
2023-03-05T10:04:44.549Z,6.02
2023-03-05T10:07:20.111Z,6.07
2023-03-05T10:10:13.850Z,5.99
2023-03-05T10:12:43.497Z,6.03
2023-03-05T10:15:15.479Z,6.00
2023-03-05T10:18:26.744Z,6.03
2023-03-05T10:21:40.348Z,5.88
2023-03-05T10:24:38.735Z,5.87
2023-03-05T10:27:40.518Z,5.94
2023-03-05T10:30:43.862Z,5.89
2023-03-05T10:33:22.964Z,5.88
2023-03-05T10:36:24.334Z,5.98
2023-03-05T10:39:04.611Z,6.08
2023-03-05T10:41:53.430Z,6.14
2023-03-05T10:44:32.249Z,6.22
2023-03-05T10:47:06.525Z,6.24
2023-03-05T10:49:38.100Z,6.29
2023-03-05T10:52:28.684Z,6.26
2023-03-05T10:55:00.582Z,6.31
2023-03-05T10:57:40.632Z,6.38
2023-03-05T11:00:30.522Z,6.29
2023-03-05T11:03:05.894Z,6.30
2023-03-05T11:05:46.621Z,6.31
2023-03-05T11:08:35.449Z,6.29
2023-03-05T11:11:14.993Z,6.32
2023-03-05T11:13:52.411Z,6.39
2023-03-05T11:16:25.954Z,6.32
2023-03-05T11:19:13.229Z,6.26
2023-03-05T11:21:44.491Z,6.35
2023-03-05T11:24:23.607Z,6.36
2023-03-05T11:26:55.786Z,6.37
2023-03-05T11:29:28.666Z,6.31
2023-03-05T11:32:00.800Z,6.34
2023-03-05T11:34:45.204Z,6.35
2023-03-05T11:37:24.109Z,6.23
2023-03-05T11:40:34.473Z,6.42
2023-03-05T11:43:03.048Z,6.46
2023-03-05T11:45:34.405Z,6.48
2023-03-05T11:48:09.482Z,6.65
2023-03-05T11:50:40.924Z,6.79
2023-03-05T11:53:31.656Z,6.78
2023-03-05T11:56:19.017Z,6.97
2023-03-05T11:59:19.772Z,7.09
2023-03-05T12:01:50.108Z,7.13
2023-03-05T12:04:18.397Z,7.05
2023-03-05T12:06:55.118Z,7.10
2023-03-05T12:09:27.341Z,7.14
2023-03-05T12:12:32.658Z,7.13
2023-03-05T12:15:25.607Z,7.05
2023-03-05T12:18:08.156Z,7.01
2023-03-05T12:20:48.071Z,6.75
2023-03-05T12:23:22.542Z,6.96
2023-03-05T12:25:52.327Z,6.97
2023-03-05T12:28:36.391Z,6.87
2023-03-05T12:31:05.519Z,6.95
2023-03-05T12:33:41.815Z,6.96
2023-03-05T12:36:17.158Z,6.85
2023-03-05T12:38:53.033Z,6.88
2023-03-05T12:41:22.532Z,6.82
2023-03-05T12:44:07.314Z,6.85
2023-03-05T12:46:37.246Z,6.82
2023-03-05T12:49:19.084Z,6.84
2023-03-05T12:51:56.490Z,6.85
2023-03-05T12:54:35.758Z,6.82
2023-03-05T12:57:14.243Z,6.71
2023-03-05T12:59:51.940Z,6.65
2023-03-05T13:02:34.602Z,6.73
2023-03-05T13:05:22.314Z,6.67
2023-03-05T13:07:49.657Z,6.59
2023-03-05T13:10:24.018Z,6.70
2023-03-05T13:12:55.600Z,6.56
2023-03-05T13:15:27.132Z,6.63
2023-03-05T13:18:03.456Z,6.65
2023-03-05T13:20:37.843Z,6.64
2023-03-05T13:23:16.206Z,6.61
2023-03-05T13:25:44.302Z,6.61
2023-03-05T13:28:17.389Z,6.51
2023-03-05T13:30:56.438Z,6.43
2023-03-05T13:33:35.531Z,6.42
2023-03-05T13:36:02.760Z,6.32
2023-03-05T13:38:32.825Z,6.33
2023-03-05T13:41:24.369Z,6.35
2023-03-05T13:43:55.656Z,6.27
2023-03-05T13:46:31.302Z,6.31
2023-03-05T13:49:18.059Z,6.31
2023-03-05T13:51:52.691Z,6.34
2023-03-05T13:54:20.229Z,6.36
2023-03-05T13:56:54.535Z,6.32
2023-03-05T13:59:28.969Z,6.32
2023-03-05T14:01:57.551Z,6.31
2023-03-05T14:04:29.584Z,6.26
2023-03-05T14:07:08.307Z,6.26
2023-03-05T14:09:37.450Z,6.23
2023-03-05T14:12:06.552Z,6.20
2023-03-05T14:14:38.398Z,6.23
2023-03-05T14:17:32.298Z,6.17
2023-03-05T14:20:13.812Z,6.17
2023-03-05T14:22:43.080Z,6.19
2023-03-05T14:25:39.679Z,6.20
2023-03-05T14:28:07.650Z,6.17
2023-03-05T14:30:36.226Z,6.20
2023-03-05T14:33:04.186Z,6.21
2023-03-05T14:35:31.188Z,6.18
2023-03-05T14:37:59.843Z,6.15
2023-03-05T14:40:35.022Z,6.11
2023-03-05T14:43:02.390Z,6.05
2023-03-05T14:45:36.947Z,6.05
2023-03-05T14:48:05.939Z,6.02
2023-03-05T14:50:37.645Z,6.02
2023-03-05T14:53:09.490Z,6.02
2023-03-05T14:55:42.677Z,5.97
2023-03-05T14:58:16.666Z,5.93
2023-03-05T15:00:44.267Z,5.90
2023-03-05T15:03:15.200Z,5.85
2023-03-05T15:05:43.252Z,5.83
2023-03-05T15:08:27.819Z,5.81
2023-03-05T15:10:54.875Z,5.78
2023-03-05T15:13:22.222Z,5.77
2023-03-05T15:15:50.443Z,5.76
2023-03-05T15:18:25.376Z,5.72
2023-03-05T15:20:57.308Z,5.69
2023-03-05T15:23:24.497Z,5.69
2023-03-05T15:25:51.350Z,5.67
2023-03-05T15:28:20.713Z,5.69
2023-03-05T15:30:47.655Z,5.68
2023-03-05T15:33:17.702Z,5.64
2023-03-05T15:35:46.981Z,5.66
2023-03-05T15:38:13.464Z,5.65
2023-03-05T15:40:39.972Z,5.64
2023-03-05T15:43:06.730Z,5.66
2023-03-05T15:45:33.977Z,5.65
2023-03-05T15:48:00.809Z,5.70
2023-03-05T15:50:32.247Z,5.73
2023-03-05T15:53:07.135Z,5.77
2023-03-05T15:55:40.148Z,5.85
2023-03-05T15:58:07.404Z,5.88
2023-03-05T16:00:40.753Z,5.94
2023-03-05T16:03:07.389Z,5.95
2023-03-05T16:05:39.053Z,5.97
2023-03-05T16:08:06.558Z,6.00
2023-03-05T16:10:36.558Z,5.95
2023-03-05T16:13:19.202Z,5.92
2023-03-05T16:15:52.710Z,5.91
2023-03-05T16:18:22.027Z,5.88
2023-03-05T16:20:48.680Z,5.82
2023-03-05T16:23:15.147Z,5.81
2023-03-05T16:25:44.873Z,5.73
2023-03-05T16:28:12.503Z,5.70
2023-03-05T16:30:40.076Z,5.69
2023-03-05T16:33:11.923Z,5.67
2023-03-05T16:35:40.800Z,5.63
2023-03-05T16:38:09.943Z,5.52
2023-03-05T16:41:06.304Z,5.47
2023-03-05T16:43:30.866Z,5.42
2023-03-05T16:45:59.486Z,5.39
2023-03-05T16:48:26.050Z,5.34
2023-03-05T16:51:04.556Z,5.26
2023-03-05T16:53:33.663Z,5.24
2023-03-05T16:56:04.068Z,5.19
2023-03-05T16:58:33.364Z,5.14
2023-03-05T17:01:01.598Z,5.09
2023-03-05T17:03:29.028Z,5.04
2023-03-05T17:05:55.850Z,4.96
2023-03-05T17:08:24.376Z,4.91
2023-03-05T17:10:56.172Z,4.85
2023-03-05T17:13:22.870Z,4.80
2023-03-05T17:15:49.257Z,4.71
2023-03-05T17:18:15.791Z,4.64
2023-03-05T17:20:42.541Z,4.63
2023-03-05T17:23:09.230Z,4.58
2023-03-05T17:25:37.136Z,4.54
2023-03-05T17:28:03.843Z,4.52
2023-03-05T17:30:39.200Z,4.54
2023-03-05T17:33:06.319Z,4.52
2023-03-05T17:35:36.573Z,4.48
2023-03-05T17:38:10.966Z,4.45
2023-03-05T17:40:37.587Z,4.42
2023-03-05T17:43:05.076Z,4.40
2023-03-05T17:45:32.305Z,4.40
2023-03-05T17:47:58.968Z,4.40
2023-03-05T17:50:25.488Z,4.37
2023-03-05T17:52:52.127Z,4.33
2023-03-05T17:55:18.666Z,4.30
2023-03-05T17:57:45.150Z,4.29
2023-03-05T18:00:26.811Z,4.27
2023-03-05T18:02:53.640Z,4.26
2023-03-05T18:05:21.891Z,4.23
2023-03-05T18:07:51.975Z,4.22
2023-03-05T18:10:20.640Z,4.21
2023-03-05T18:12:47.736Z,4.25
2023-03-05T18:15:17.252Z,4.23
2023-03-05T18:17:46.070Z,4.26
2023-03-05T18:20:25.042Z,4.21
2023-03-05T18:22:54.251Z,4.23
2023-03-05T18:25:21.965Z,4.20
2023-03-05T18:27:48.571Z,4.16
2023-03-05T18:30:15.024Z,4.13
2023-03-05T18:32:47.545Z,4.10
2023-03-05T18:35:14.307Z,4.09
2023-03-05T18:37:43.016Z,4.05
2023-03-05T18:40:14.616Z,4.02
2023-03-05T18:42:41.270Z,4.00
2023-03-05T18:45:10.353Z,3.99
2023-03-05T18:47:39.434Z,3.97
2023-03-05T18:50:07.119Z,3.96
2023-03-05T18:52:33.617Z,3.95
2023-03-05T18:55:00.243Z,3.94
2023-03-05T18:57:27.174Z,3.93
2023-03-05T18:59:53.603Z,3.92
2023-03-05T19:02:20.049Z,3.92
2023-03-05T19:04:46.643Z,3.93
2023-03-05T19:07:13.310Z,3.90
2023-03-05T19:09:54.817Z,3.93
2023-03-05T19:12:31.672Z,3.90
2023-03-05T19:14:59.433Z,3.89
2023-03-05T19:17:29.469Z,3.87
2023-03-05T19:19:58.675Z,3.86
2023-03-05T19:22:26.889Z,3.84
2023-03-05T19:24:55.694Z,3.86
2023-03-05T19:27:27.910Z,3.84
2023-03-05T19:29:55.666Z,3.85
2023-03-05T19:32:22.206Z,3.84
2023-03-05T19:34:49.235Z,3.83
2023-03-05T19:37:15.735Z,3.83
2023-03-05T19:39:45.093Z,3.83
2023-03-05T19:42:16.242Z,3.83
2023-03-05T19:44:42.685Z,3.85
2023-03-05T19:47:09.195Z,3.87
2023-03-05T19:49:36.083Z,3.87
2023-03-05T19:52:04.174Z,3.86
2023-03-05T19:54:30.671Z,3.83
2023-03-05T19:56:58.993Z,3.81
2023-03-05T19:59:28.554Z,3.80
2023-03-05T20:01:57.472Z,3.77
2023-03-05T20:04:27.938Z,3.75
2023-03-05T20:06:54.336Z,3.74
2023-03-05T20:09:21.053Z,3.76
2023-03-05T20:11:47.658Z,3.73
2023-03-05T20:14:16.634Z,3.67
2023-03-05T20:16:43.836Z,3.64
2023-03-05T20:19:16.578Z,3.62
2023-03-05T20:21:44.892Z,3.59
2023-03-05T20:24:16.409Z,3.58
2023-03-05T20:26:44.933Z,3.56
2023-03-05T20:29:12.499Z,3.55
2023-03-05T20:31:41.414Z,3.54
2023-03-05T20:34:11.877Z,3.54
2023-03-05T20:36:40.901Z,3.54
2023-03-05T20:39:09.902Z,3.51
2023-03-05T20:41:39.327Z,3.51
2023-03-05T20:44:06.746Z,3.48
2023-03-05T20:46:41.818Z,3.48
2023-03-05T20:49:09.020Z,3.46
2023-03-05T20:51:37.865Z,3.52
2023-03-05T20:54:11.696Z,3.51
2023-03-05T20:56:38.392Z,3.49
2023-03-05T20:59:08.563Z,3.48
2023-03-05T21:01:38.041Z,3.48
2023-03-05T21:04:05.066Z,3.45
2023-03-05T21:06:32.395Z,3.42
2023-03-05T21:08:59.948Z,3.43
2023-03-05T21:11:26.623Z,3.45
2023-03-05T21:13:53.527Z,3.50
2023-03-05T21:16:22.925Z,3.45
2023-03-05T21:18:50.753Z,3.43
2023-03-05T21:21:20.240Z,3.44
2023-03-05T21:23:52.212Z,3.41
2023-03-05T21:26:18.934Z,3.38
2023-03-05T21:28:45.359Z,3.34
2023-03-05T21:31:18.144Z,3.32
2023-03-05T21:33:47.475Z,3.31
2023-03-05T21:36:18.797Z,3.28
2023-03-05T21:38:49.400Z,3.27
2023-03-05T21:41:17.998Z,3.25
2023-03-05T21:43:47.065Z,3.25
2023-03-05T21:46:16.120Z,3.24
2023-03-05T21:48:42.551Z,3.22
2023-03-05T21:51:13.808Z,3.25
2023-03-05T21:53:40.212Z,3.24
2023-03-05T21:56:22.398Z,3.26
2023-03-05T21:58:51.261Z,3.19
2023-03-05T22:01:19.503Z,3.21
2023-03-05T22:03:46.090Z,3.19
2023-03-05T22:06:18.417Z,3.16
2023-03-05T22:08:45.096Z,3.18
2023-03-05T22:11:14.333Z,3.19
2023-03-05T22:13:41.286Z,3.19
2023-03-05T22:16:10.610Z,3.19
2023-03-05T22:18:37.223Z,3.16
2023-03-05T22:21:04.751Z,3.15
2023-03-05T22:23:34.519Z,3.12
2023-03-05T22:26:05.681Z,3.11
2023-03-05T22:28:34.059Z,3.13
2023-03-05T22:31:02.880Z,3.13
2023-03-05T22:33:29.914Z,3.11
2023-03-05T22:35:56.437Z,3.12
2023-03-05T22:38:30.348Z,3.10
2023-03-05T22:40:59.226Z,3.11
2023-03-05T22:43:25.716Z,3.08
2023-03-05T22:45:52.408Z,3.08
2023-03-05T22:48:18.806Z,3.06
2023-03-05T22:50:57.669Z,3.06
2023-03-05T22:53:24.130Z,3.05
2023-03-05T22:55:50.542Z,3.01
2023-03-05T22:58:17.109Z,3.02
2023-03-05T23:00:43.537Z,3.02
2023-03-05T23:03:10.102Z,2.98
2023-03-05T23:05:40.232Z,2.98
2023-03-05T23:08:09.284Z,3.02
2023-03-05T23:10:35.831Z,3.02
2023-03-05T23:13:02.431Z,3.00
2023-03-05T23:15:33.393Z,2.97
2023-03-05T23:18:00.396Z,2.96
2023-03-05T23:20:30.217Z,2.96
2023-03-05T23:22:59.155Z,2.96
2023-03-05T23:25:28.877Z,2.94
2023-03-05T23:27:57.975Z,2.92
2023-03-05T23:30:37.129Z,2.88
2023-03-05T23:33:23.332Z,2.87
2023-03-05T23:35:50.955Z,2.86
2023-03-05T23:38:17.625Z,2.88
2023-03-05T23:40:46.979Z,2.86
2023-03-05T23:43:14.570Z,2.87
2023-03-05T23:45:42.476Z,2.91
2023-03-05T23:48:09.569Z,2.87
2023-03-05T23:50:38.503Z,2.87
2023-03-05T23:53:06.030Z,2.86
2023-03-05T23:55:36.808Z,2.82
2023-03-05T23:58:03.653Z,2.82
